sensor_id;sensor_type;location;lat;lon;timestamp;P1;durP1;ratioP1;P2;durP2;ratioP2
18623;SDS011;9441;51.420;7.036;2023-02-28T00:00:21;14.70;;;8.20;;
18623;SDS011;9441;51.420;7.036;2023-02-28T00:01:22;15.27;;;7.80;;
18623;SDS011;9441;51.420;7.036;2023-02-28T00:02:25;13.17;;;7.73;;
18623;SDS011;9441;51.420;7.036;2023-02-28T00:03:26;11.50;;;7.47;;
18623;SDS011;9441;51.420;7.036;2023-02-28T00:04:29;11.03;;;6.77;;
18623;SDS011;9441;51.420;7.036;2023-02-28T00:05:30;16.87;;;7.50;;
18623;SDS011;9441;51.420;7.036;2023-02-28T00:06:32;10.30;;;7.00;;
18623;SDS011;9441;51.420;7.036;2023-02-28T00:07:34;13.80;;;7.80;;
18623;SDS011;9441;51.420;7.036;2023-02-28T00:08:37;15.27;;;7.53;;
18623;SDS011;9441;51.420;7.036;2023-02-28T00:09:38;13.00;;;6.97;;
18623;SDS011;9441;51.420;7.036;2023-02-28T00:10:41;13.90;;;7.10;;
18623;SDS011;9441;51.420;7.036;2023-02-28T00:11:42;12.90;;;6.93;;
18623;SDS011;9441;51.420;7.036;2023-02-28T00:12:44;15.10;;;7.03;;
18623;SDS011;9441;51.420;7.036;2023-02-28T00:13:46;12.47;;;6.73;;
18623;SDS011;9441;51.420;7.036;2023-02-28T00:14:49;14.97;;;7.57;;
18623;SDS011;9441;51.420;7.036;2023-02-28T00:15:59;11.77;;;6.53;;
18623;SDS011;9441;51.420;7.036;2023-02-28T00:17:02;12.07;;;6.80;;
18623;SDS011;9441;51.420;7.036;2023-02-28T00:18:03;11.00;;;6.83;;
18623;SDS011;9441;51.420;7.036;2023-02-28T00:19:05;11.53;;;6.93;;
18623;SDS011;9441;51.420;7.036;2023-02-28T00:20:08;14.13;;;7.50;;
18623;SDS011;9441;51.420;7.036;2023-02-28T00:21:12;14.77;;;7.07;;
18623;SDS011;9441;51.420;7.036;2023-02-28T00:22:14;12.63;;;7.07;;
18623;SDS011;9441;51.420;7.036;2023-02-28T00:23:16;16.50;;;7.20;;
18623;SDS011;9441;51.420;7.036;2023-02-28T00:24:18;11.17;;;6.43;;
18623;SDS011;9441;51.420;7.036;2023-02-28T00:25:20;10.80;;;6.23;;
18623;SDS011;9441;51.420;7.036;2023-02-28T00:26:23;13.50;;;6.90;;
18623;SDS011;9441;51.420;7.036;2023-02-28T00:27:25;15.97;;;6.70;;
18623;SDS011;9441;51.420;7.036;2023-02-28T00:28:27;14.93;;;6.47;;
18623;SDS011;9441;51.420;7.036;2023-02-28T00:29:28;10.40;;;6.20;;
18623;SDS011;9441;51.420;7.036;2023-02-28T00:30:31;12.37;;;6.00;;
18623;SDS011;9441;51.420;7.036;2023-02-28T00:31:34;12.03;;;6.33;;
18623;SDS011;9441;51.420;7.036;2023-02-28T00:32:36;11.70;;;6.20;;
18623;SDS011;9441;51.420;7.036;2023-02-28T00:33:37;12.17;;;6.00;;
18623;SDS011;9441;51.420;7.036;2023-02-28T00:34:40;12.37;;;5.87;;
18623;SDS011;9441;51.420;7.036;2023-02-28T00:35:42;9.93;;;5.27;;
18623;SDS011;9441;51.420;7.036;2023-02-28T00:36:46;12.83;;;5.47;;
18623;SDS011;9441;51.420;7.036;2023-02-28T00:37:49;9.83;;;5.73;;
18623;SDS011;9441;51.420;7.036;2023-02-28T00:38:51;10.23;;;5.33;;
18623;SDS011;9441;51.420;7.036;2023-02-28T00:39:53;10.07;;;5.40;;
18623;SDS011;9441;51.420;7.036;2023-02-28T00:40:56;10.00;;;5.50;;
18623;SDS011;9441;51.420;7.036;2023-02-28T00:41:59;11.10;;;6.00;;
18623;SDS011;9441;51.420;7.036;2023-02-28T00:43:02;13.03;;;5.57;;
18623;SDS011;9441;51.420;7.036;2023-02-28T00:44:04;10.60;;;5.53;;
18623;SDS011;9441;51.420;7.036;2023-02-28T00:45:07;9.50;;;5.37;;
18623;SDS011;9441;51.420;7.036;2023-02-28T00:46:08;12.80;;;5.60;;
18623;SDS011;9441;51.420;7.036;2023-02-28T00:47:12;11.87;;;5.50;;
18623;SDS011;9441;51.420;7.036;2023-02-28T00:48:13;8.97;;;5.20;;
18623;SDS011;9441;51.420;7.036;2023-02-28T00:49:16;9.37;;;5.13;;
18623;SDS011;9441;51.420;7.036;2023-02-28T00:50:18;9.23;;;5.30;;
18623;SDS011;9441;51.420;7.036;2023-02-28T00:51:20;10.77;;;5.20;;
18623;SDS011;9441;51.420;7.036;2023-02-28T00:52:21;8.10;;;5.13;;
18623;SDS011;9441;51.420;7.036;2023-02-28T00:53:24;11.40;;;5.33;;
18623;SDS011;9441;51.420;7.036;2023-02-28T00:54:25;10.63;;;4.90;;
18623;SDS011;9441;51.420;7.036;2023-02-28T00:55:28;9.17;;;5.10;;
18623;SDS011;9441;51.420;7.036;2023-02-28T00:56:30;12.57;;;4.70;;
18623;SDS011;9441;51.420;7.036;2023-02-28T00:57:31;9.33;;;4.90;;
18623;SDS011;9441;51.420;7.036;2023-02-28T00:58:34;9.43;;;4.73;;
18623;SDS011;9441;51.420;7.036;2023-02-28T00:59:35;6.57;;;4.87;;
18623;SDS011;9441;51.420;7.036;2023-02-28T01:00:40;11.53;;;5.30;;
18623;SDS011;9441;51.420;7.036;2023-02-28T01:01:41;12.80;;;5.50;;
18623;SDS011;9441;51.420;7.036;2023-02-28T01:02:45;9.60;;;5.00;;
18623;SDS011;9441;51.420;7.036;2023-02-28T01:03:48;9.27;;;5.00;;
18623;SDS011;9441;51.420;7.036;2023-02-28T01:04:50;8.73;;;5.23;;
18623;SDS011;9441;51.420;7.036;2023-02-28T01:05:51;8.97;;;5.00;;
18623;SDS011;9441;51.420;7.036;2023-02-28T01:06:54;8.67;;;5.27;;
18623;SDS011;9441;51.420;7.036;2023-02-28T01:07:55;8.60;;;5.00;;
18623;SDS011;9441;51.420;7.036;2023-02-28T01:08:58;15.33;;;5.10;;
18623;SDS011;9441;51.420;7.036;2023-02-28T01:09:59;10.43;;;5.60;;
18623;SDS011;9441;51.420;7.036;2023-02-28T01:11:06;10.50;;;5.50;;
18623;SDS011;9441;51.420;7.036;2023-02-28T01:12:08;7.67;;;4.77;;
18623;SDS011;9441;51.420;7.036;2023-02-28T01:13:10;7.53;;;5.10;;
18623;SDS011;9441;51.420;7.036;2023-02-28T01:14:12;11.70;;;5.27;;
18623;SDS011;9441;51.420;7.036;2023-02-28T01:15:15;9.97;;;4.87;;
18623;SDS011;9441;51.420;7.036;2023-02-28T01:16:16;12.20;;;5.07;;
18623;SDS011;9441;51.420;7.036;2023-02-28T01:17:19;7.50;;;4.87;;
18623;SDS011;9441;51.420;7.036;2023-02-28T01:18:22;7.10;;;4.90;;
18623;SDS011;9441;51.420;7.036;2023-02-28T01:19:24;10.27;;;5.20;;
18623;SDS011;9441;51.420;7.036;2023-02-28T01:20:26;10.23;;;4.67;;
18623;SDS011;9441;51.420;7.036;2023-02-28T01:21:28;10.40;;;4.80;;
18623;SDS011;9441;51.420;7.036;2023-02-28T01:22:30;8.37;;;5.17;;
18623;SDS011;9441;51.420;7.036;2023-02-28T01:23:32;11.20;;;5.07;;
18623;SDS011;9441;51.420;7.036;2023-02-28T01:24:34;9.87;;;5.10;;
18623;SDS011;9441;51.420;7.036;2023-02-28T01:25:36;8.60;;;4.73;;
18623;SDS011;9441;51.420;7.036;2023-02-28T01:26:38;9.30;;;5.30;;
18623;SDS011;9441;51.420;7.036;2023-02-28T01:27:41;8.80;;;5.00;;
18623;SDS011;9441;51.420;7.036;2023-02-28T01:28:43;11.10;;;4.97;;
18623;SDS011;9441;51.420;7.036;2023-02-28T01:29:45;11.57;;;5.43;;
18623;SDS011;9441;51.420;7.036;2023-02-28T01:30:47;10.83;;;5.33;;
18623;SDS011;9441;51.420;7.036;2023-02-28T01:31:49;7.77;;;5.03;;
18623;SDS011;9441;51.420;7.036;2023-02-28T01:32:51;8.90;;;4.67;;
18623;SDS011;9441;51.420;7.036;2023-02-28T01:33:55;8.60;;;4.93;;
18623;SDS011;9441;51.420;7.036;2023-02-28T01:34:56;8.73;;;4.77;;
18623;SDS011;9441;51.420;7.036;2023-02-28T01:35:59;7.23;;;5.07;;
18623;SDS011;9441;51.420;7.036;2023-02-28T01:37:00;13.30;;;4.80;;
18623;SDS011;9441;51.420;7.036;2023-02-28T01:38:03;7.93;;;4.70;;
18623;SDS011;9441;51.420;7.036;2023-02-28T01:39:05;9.07;;;5.00;;
18623;SDS011;9441;51.420;7.036;2023-02-28T01:40:08;12.97;;;5.17;;
18623;SDS011;9441;51.420;7.036;2023-02-28T01:41:11;8.00;;;4.63;;
18623;SDS011;9441;51.420;7.036;2023-02-28T01:42:16;10.70;;;5.13;;
18623;SDS011;9441;51.420;7.036;2023-02-28T01:43:19;11.97;;;5.00;;
18623;SDS011;9441;51.420;7.036;2023-02-28T01:45:43;10.23;;;4.73;;
18623;SDS011;9441;51.420;7.036;2023-02-28T01:46:44;8.40;;;4.93;;
18623;SDS011;9441;51.420;7.036;2023-02-28T01:47:48;13.13;;;5.23;;
18623;SDS011;9441;51.420;7.036;2023-02-28T01:48:53;10.33;;;4.73;;
18623;SDS011;9441;51.420;7.036;2023-02-28T01:49:57;8.87;;;5.00;;
18623;SDS011;9441;51.420;7.036;2023-02-28T01:51:00;10.73;;;5.20;;
18623;SDS011;9441;51.420;7.036;2023-02-28T01:52:03;8.90;;;5.10;;
18623;SDS011;9441;51.420;7.036;2023-02-28T01:53:05;10.10;;;5.03;;
18623;SDS011;9441;51.420;7.036;2023-02-28T01:54:11;8.23;;;4.87;;
18623;SDS011;9441;51.420;7.036;2023-02-28T01:55:14;7.53;;;4.80;;
18623;SDS011;9441;51.420;7.036;2023-02-28T01:56:17;9.20;;;5.10;;
18623;SDS011;9441;51.420;7.036;2023-02-28T01:57:24;9.83;;;5.10;;
18623;SDS011;9441;51.420;7.036;2023-02-28T01:58:27;10.53;;;5.17;;
18623;SDS011;9441;51.420;7.036;2023-02-28T01:59:31;9.00;;;5.10;;
18623;SDS011;9441;51.420;7.036;2023-02-28T02:00:34;8.33;;;5.17;;
18623;SDS011;9441;51.420;7.036;2023-02-28T02:01:36;8.67;;;4.83;;
18623;SDS011;9441;51.420;7.036;2023-02-28T02:02:38;9.10;;;4.73;;
18623;SDS011;9441;51.420;7.036;2023-02-28T02:03:42;9.00;;;5.07;;
18623;SDS011;9441;51.420;7.036;2023-02-28T02:04:46;6.93;;;5.10;;
18623;SDS011;9441;51.420;7.036;2023-02-28T02:05:54;11.03;;;5.20;;
18623;SDS011;9441;51.420;7.036;2023-02-28T02:06:55;9.47;;;5.00;;
18623;SDS011;9441;51.420;7.036;2023-02-28T02:08:00;9.03;;;4.90;;
18623;SDS011;9441;51.420;7.036;2023-02-28T02:09:02;10.33;;;5.30;;
18623;SDS011;9441;51.420;7.036;2023-02-28T02:10:05;11.07;;;5.30;;
18623;SDS011;9441;51.420;7.036;2023-02-28T02:11:07;9.63;;;4.93;;
18623;SDS011;9441;51.420;7.036;2023-02-28T02:12:14;10.07;;;5.00;;
18623;SDS011;9441;51.420;7.036;2023-02-28T02:13:23;9.97;;;5.03;;
18623;SDS011;9441;51.420;7.036;2023-02-28T02:14:37;9.67;;;4.70;;
18623;SDS011;9441;51.420;7.036;2023-02-28T02:15:42;9.77;;;5.50;;
18623;SDS011;9441;51.420;7.036;2023-02-28T02:16:50;10.67;;;5.00;;
18623;SDS011;9441;51.420;7.036;2023-02-28T02:17:56;11.37;;;5.03;;
18623;SDS011;9441;51.420;7.036;2023-02-28T02:19:00;9.27;;;5.07;;
18623;SDS011;9441;51.420;7.036;2023-02-28T02:20:16;10.07;;;5.17;;
18623;SDS011;9441;51.420;7.036;2023-02-28T02:24:20;10.13;;;5.27;;
18623;SDS011;9441;51.420;7.036;2023-02-28T02:25:29;7.47;;;4.63;;
18623;SDS011;9441;51.420;7.036;2023-02-28T02:26:49;8.07;;;5.07;;
18623;SDS011;9441;51.420;7.036;2023-02-28T02:27:59;12.03;;;5.90;;
18623;SDS011;9441;51.420;7.036;2023-02-28T02:30:44;8.77;;;5.00;;
18623;SDS011;9441;51.420;7.036;2023-02-28T02:31:52;5.88;;;4.47;;
18623;SDS011;9441;51.420;7.036;2023-02-28T02:33:21;9.38;;;4.75;;
18623;SDS011;9441;51.420;7.036;2023-02-28T02:34:35;7.20;;;4.43;;
18623;SDS011;9441;51.420;7.036;2023-02-28T02:35:39;13.38;;;5.13;;
18623;SDS011;9441;51.420;7.036;2023-02-28T02:36:42;9.52;;;5.10;;
18623;SDS011;9441;51.420;7.036;2023-02-28T02:37:50;8.18;;;4.72;;
18623;SDS011;9441;51.420;7.036;2023-02-28T02:38:55;9.75;;;5.07;;
18623;SDS011;9441;51.420;7.036;2023-02-28T02:40:03;9.25;;;5.15;;
18623;SDS011;9441;51.420;7.036;2023-02-28T02:41:08;10.32;;;4.97;;
18623;SDS011;9441;51.420;7.036;2023-02-28T02:42:14;8.80;;;5.25;;
18623;SDS011;9441;51.420;7.036;2023-02-28T02:43:19;10.57;;;5.00;;
18623;SDS011;9441;51.420;7.036;2023-02-28T02:44:22;11.35;;;4.88;;
18623;SDS011;9441;51.420;7.036;2023-02-28T02:45:27;9.15;;;5.47;;
18623;SDS011;9441;51.420;7.036;2023-02-28T02:46:30;11.80;;;5.00;;
18623;SDS011;9441;51.420;7.036;2023-02-28T02:47:35;8.98;;;4.93;;
18623;SDS011;9441;51.420;7.036;2023-02-28T02:48:37;10.57;;;4.90;;
18623;SDS011;9441;51.420;7.036;2023-02-28T02:49:43;10.60;;;5.20;;
18623;SDS011;9441;51.420;7.036;2023-02-28T02:50:48;9.77;;;5.35;;
18623;SDS011;9441;51.420;7.036;2023-02-28T02:51:51;8.23;;;5.40;;
18623;SDS011;9441;51.420;7.036;2023-02-28T02:52:55;11.00;;;4.93;;
18623;SDS011;9441;51.420;7.036;2023-02-28T02:53:59;10.07;;;5.20;;
18623;SDS011;9441;51.420;7.036;2023-02-28T02:55:02;10.27;;;5.03;;
18623;SDS011;9441;51.420;7.036;2023-02-28T02:56:06;9.23;;;5.00;;
18623;SDS011;9441;51.420;7.036;2023-02-28T02:57:09;11.50;;;4.70;;
18623;SDS011;9441;51.420;7.036;2023-02-28T02:58:14;12.60;;;5.45;;
18623;SDS011;9441;51.420;7.036;2023-02-28T02:59:18;9.27;;;4.78;;
18623;SDS011;9441;51.420;7.036;2023-02-28T03:00:23;10.18;;;5.00;;
18623;SDS011;9441;51.420;7.036;2023-02-28T03:01:28;8.83;;;5.07;;
18623;SDS011;9441;51.420;7.036;2023-02-28T03:02:32;8.20;;;4.82;;
18623;SDS011;9441;51.420;7.036;2023-02-28T03:03:34;10.33;;;4.93;;
18623;SDS011;9441;51.420;7.036;2023-02-28T03:04:38;11.43;;;5.07;;
18623;SDS011;9441;51.420;7.036;2023-02-28T03:05:44;9.73;;;5.18;;
18623;SDS011;9441;51.420;7.036;2023-02-28T03:06:48;7.50;;;4.70;;
18623;SDS011;9441;51.420;7.036;2023-02-28T03:07:55;8.20;;;4.90;;
18623;SDS011;9441;51.420;7.036;2023-02-28T03:08:58;7.82;;;4.85;;
18623;SDS011;9441;51.420;7.036;2023-02-28T03:10:00;8.25;;;5.15;;
18623;SDS011;9441;51.420;7.036;2023-02-28T03:11:03;9.90;;;5.32;;
18623;SDS011;9441;51.420;7.036;2023-02-28T03:12:09;7.27;;;4.53;;
18623;SDS011;9441;51.420;7.036;2023-02-28T03:13:25;7.88;;;5.05;;
18623;SDS011;9441;51.420;7.036;2023-02-28T03:14:40;10.13;;;4.57;;
18623;SDS011;9441;51.420;7.036;2023-02-28T03:15:54;8.52;;;4.65;;
18623;SDS011;9441;51.420;7.036;2023-02-28T03:17:08;12.02;;;4.65;;
18623;SDS011;9441;51.420;7.036;2023-02-28T03:18:13;13.03;;;4.60;;
18623;SDS011;9441;51.420;7.036;2023-02-28T03:19:23;14.15;;;5.05;;
18623;SDS011;9441;51.420;7.036;2023-02-28T03:20:29;8.73;;;4.75;;
18623;SDS011;9441;51.420;7.036;2023-02-28T03:21:36;10.60;;;4.97;;
18623;SDS011;9441;51.420;7.036;2023-02-28T03:22:50;8.77;;;4.88;;
18623;SDS011;9441;51.420;7.036;2023-02-28T03:23:54;7.63;;;4.80;;
18623;SDS011;9441;51.420;7.036;2023-02-28T03:25:00;10.75;;;4.88;;
18623;SDS011;9441;51.420;7.036;2023-02-28T03:26:06;9.95;;;5.07;;
18623;SDS011;9441;51.420;7.036;2023-02-28T03:27:12;10.57;;;5.57;;
18623;SDS011;9441;51.420;7.036;2023-02-28T03:28:17;10.18;;;5.28;;
18623;SDS011;9441;51.420;7.036;2023-02-28T03:29:22;9.02;;;5.10;;
18623;SDS011;9441;51.420;7.036;2023-02-28T03:30:26;10.80;;;5.30;;
18623;SDS011;9441;51.420;7.036;2023-02-28T03:31:32;11.63;;;4.88;;
18623;SDS011;9441;51.420;7.036;2023-02-28T03:32:36;10.10;;;4.78;;
18623;SDS011;9441;51.420;7.036;2023-02-28T03:33:42;14.17;;;5.30;;
18623;SDS011;9441;51.420;7.036;2023-02-28T03:34:46;8.15;;;5.13;;
18623;SDS011;9441;51.420;7.036;2023-02-28T03:35:50;9.93;;;5.28;;
18623;SDS011;9441;51.420;7.036;2023-02-28T03:36:57;8.40;;;4.65;;
18623;SDS011;9441;51.420;7.036;2023-02-28T03:38:03;9.63;;;4.57;;
18623;SDS011;9441;51.420;7.036;2023-02-28T03:39:09;10.03;;;5.20;;
18623;SDS011;9441;51.420;7.036;2023-02-28T03:40:13;8.60;;;5.10;;
18623;SDS011;9441;51.420;7.036;2023-02-28T03:41:17;9.63;;;5.60;;
18623;SDS011;9441;51.420;7.036;2023-02-28T03:42:20;8.50;;;4.95;;
18623;SDS011;9441;51.420;7.036;2023-02-28T03:43:24;10.10;;;5.38;;
18623;SDS011;9441;51.420;7.036;2023-02-28T03:44:28;10.85;;;5.35;;
18623;SDS011;9441;51.420;7.036;2023-02-28T03:45:33;11.73;;;5.50;;
18623;SDS011;9441;51.420;7.036;2023-02-28T03:46:38;12.88;;;4.85;;
18623;SDS011;9441;51.420;7.036;2023-02-28T03:47:44;9.90;;;4.82;;
18623;SDS011;9441;51.420;7.036;2023-02-28T03:48:49;10.52;;;5.28;;
18623;SDS011;9441;51.420;7.036;2023-02-28T03:49:53;9.68;;;5.40;;
18623;SDS011;9441;51.420;7.036;2023-02-28T03:50:55;9.23;;;5.23;;
18623;SDS011;9441;51.420;7.036;2023-02-28T03:52:00;11.07;;;5.10;;
18623;SDS011;9441;51.420;7.036;2023-02-28T03:53:04;8.38;;;4.63;;
18623;SDS011;9441;51.420;7.036;2023-02-28T03:54:09;7.53;;;4.82;;
18623;SDS011;9441;51.420;7.036;2023-02-28T03:55:13;11.15;;;5.00;;
18623;SDS011;9441;51.420;7.036;2023-02-28T03:56:17;7.85;;;4.72;;
18623;SDS011;9441;51.420;7.036;2023-02-28T03:57:20;9.55;;;4.50;;
18623;SDS011;9441;51.420;7.036;2023-02-28T03:58:26;8.63;;;4.82;;
18623;SDS011;9441;51.420;7.036;2023-02-28T03:59:30;9.52;;;4.70;;
18623;SDS011;9441;51.420;7.036;2023-02-28T04:00:35;9.93;;;4.55;;
18623;SDS011;9441;51.420;7.036;2023-02-28T04:01:38;12.13;;;5.13;;
18623;SDS011;9441;51.420;7.036;2023-02-28T04:02:41;9.85;;;4.68;;
18623;SDS011;9441;51.420;7.036;2023-02-28T04:03:43;8.63;;;4.20;;
18623;SDS011;9441;51.420;7.036;2023-02-28T04:04:45;7.15;;;4.25;;
18623;SDS011;9441;51.420;7.036;2023-02-28T04:05:50;9.98;;;4.53;;
18623;SDS011;9441;51.420;7.036;2023-02-28T04:06:53;10.07;;;4.88;;
18623;SDS011;9441;51.420;7.036;2023-02-28T04:08:06;6.95;;;4.25;;
18623;SDS011;9441;51.420;7.036;2023-02-28T04:09:10;11.07;;;4.72;;
18623;SDS011;9441;51.420;7.036;2023-02-28T04:10:12;9.15;;;4.80;;
18623;SDS011;9441;51.420;7.036;2023-02-28T04:11:18;9.75;;;4.50;;
18623;SDS011;9441;51.420;7.036;2023-02-28T04:12:19;7.72;;;4.40;;
18623;SDS011;9441;51.420;7.036;2023-02-28T04:13:23;6.78;;;4.28;;
18623;SDS011;9441;51.420;7.036;2023-02-28T04:14:24;7.28;;;4.28;;
18623;SDS011;9441;51.420;7.036;2023-02-28T04:15:27;8.43;;;4.45;;
18623;SDS011;9441;51.420;7.036;2023-02-28T04:16:28;9.88;;;4.60;;
18623;SDS011;9441;51.420;7.036;2023-02-28T04:17:31;10.43;;;4.83;;
18623;SDS011;9441;51.420;7.036;2023-02-28T04:18:32;6.75;;;4.20;;
18623;SDS011;9441;51.420;7.036;2023-02-28T04:19:34;8.07;;;4.30;;
18623;SDS011;9441;51.420;7.036;2023-02-28T04:20:36;8.25;;;4.38;;
18623;SDS011;9441;51.420;7.036;2023-02-28T04:21:40;11.27;;;4.50;;
18623;SDS011;9441;51.420;7.036;2023-02-28T04:22:42;6.57;;;4.18;;
18623;SDS011;9441;51.420;7.036;2023-02-28T04:23:45;8.47;;;4.40;;
18623;SDS011;9441;51.420;7.036;2023-02-28T04:24:47;7.65;;;4.43;;
18623;SDS011;9441;51.420;7.036;2023-02-28T04:25:49;8.60;;;4.50;;
18623;SDS011;9441;51.420;7.036;2023-02-28T04:26:52;7.00;;;4.40;;
18623;SDS011;9441;51.420;7.036;2023-02-28T04:27:54;9.30;;;4.07;;
18623;SDS011;9441;51.420;7.036;2023-02-28T04:28:56;9.35;;;4.53;;
18623;SDS011;9441;51.420;7.036;2023-02-28T04:29:58;10.20;;;4.57;;
18623;SDS011;9441;51.420;7.036;2023-02-28T04:31:00;8.05;;;4.32;;
18623;SDS011;9441;51.420;7.036;2023-02-28T04:32:03;9.48;;;4.63;;
18623;SDS011;9441;51.420;7.036;2023-02-28T04:33:04;8.35;;;4.68;;
18623;SDS011;9441;51.420;7.036;2023-02-28T04:34:07;9.38;;;4.32;;
18623;SDS011;9441;51.420;7.036;2023-02-28T04:35:08;9.20;;;4.15;;
18623;SDS011;9441;51.420;7.036;2023-02-28T04:36:10;14.32;;;3.95;;
18623;SDS011;9441;51.420;7.036;2023-02-28T04:37:12;9.18;;;4.25;;
18623;SDS011;9441;51.420;7.036;2023-02-28T04:38:15;9.40;;;4.43;;
18623;SDS011;9441;51.420;7.036;2023-02-28T04:39:17;7.90;;;4.20;;
18623;SDS011;9441;51.420;7.036;2023-02-28T04:40:20;14.00;;;4.30;;
18623;SDS011;9441;51.420;7.036;2023-02-28T04:41:21;7.15;;;4.32;;
18623;SDS011;9441;51.420;7.036;2023-02-28T04:42:24;10.07;;;4.43;;
18623;SDS011;9441;51.420;7.036;2023-02-28T04:43:25;9.18;;;4.00;;
18623;SDS011;9441;51.420;7.036;2023-02-28T04:44:28;7.47;;;4.40;;
18623;SDS011;9441;51.420;7.036;2023-02-28T04:45:30;8.80;;;4.30;;
18623;SDS011;9441;51.420;7.036;2023-02-28T04:46:34;5.97;;;4.00;;
18623;SDS011;9441;51.420;7.036;2023-02-28T04:47:35;6.80;;;4.28;;
18623;SDS011;9441;51.420;7.036;2023-02-28T04:48:38;10.57;;;4.90;;
18623;SDS011;9441;51.420;7.036;2023-02-28T04:49:39;9.27;;;4.28;;
18623;SDS011;9441;51.420;7.036;2023-02-28T04:50:42;8.13;;;4.60;;
18623;SDS011;9441;51.420;7.036;2023-02-28T04:51:44;8.68;;;4.43;;
18623;SDS011;9441;51.420;7.036;2023-02-28T04:52:46;9.80;;;4.47;;
18623;SDS011;9441;51.420;7.036;2023-02-28T04:53:47;9.50;;;4.60;;
18623;SDS011;9441;51.420;7.036;2023-02-28T04:54:51;9.10;;;4.50;;
18623;SDS011;9441;51.420;7.036;2023-02-28T04:55:53;7.30;;;4.35;;
18623;SDS011;9441;51.420;7.036;2023-02-28T04:56:55;8.30;;;4.50;;
18623;SDS011;9441;51.420;7.036;2023-02-28T04:57:57;9.18;;;4.70;;
18623;SDS011;9441;51.420;7.036;2023-02-28T04:59:00;9.77;;;4.45;;
18623;SDS011;9441;51.420;7.036;2023-02-28T05:00:02;10.52;;;4.63;;
18623;SDS011;9441;51.420;7.036;2023-02-28T05:01:13;8.68;;;4.47;;
18623;SDS011;9441;51.420;7.036;2023-02-28T05:02:17;6.85;;;4.40;;
18623;SDS011;9441;51.420;7.036;2023-02-28T05:03:18;9.90;;;4.30;;
18623;SDS011;9441;51.420;7.036;2023-02-28T05:04:22;8.75;;;4.47;;
18623;SDS011;9441;51.420;7.036;2023-02-28T05:05:23;9.25;;;4.65;;
18623;SDS011;9441;51.420;7.036;2023-02-28T05:06:26;7.43;;;4.18;;
18623;SDS011;9441;51.420;7.036;2023-02-28T05:07:28;9.35;;;4.50;;
18623;SDS011;9441;51.420;7.036;2023-02-28T05:08:30;14.20;;;5.13;;
18623;SDS011;9441;51.420;7.036;2023-02-28T05:09:32;8.15;;;4.45;;
18623;SDS011;9441;51.420;7.036;2023-02-28T05:10:36;7.10;;;4.47;;
18623;SDS011;9441;51.420;7.036;2023-02-28T05:11:38;7.30;;;4.40;;
18623;SDS011;9441;51.420;7.036;2023-02-28T05:12:40;7.38;;;4.45;;
18623;SDS011;9441;51.420;7.036;2023-02-28T05:13:41;6.45;;;4.40;;
18623;SDS011;9441;51.420;7.036;2023-02-28T05:14:44;10.00;;;4.70;;
18623;SDS011;9441;51.420;7.036;2023-02-28T05:15:45;7.47;;;4.53;;
18623;SDS011;9441;51.420;7.036;2023-02-28T05:16:48;8.00;;;4.53;;
18623;SDS011;9441;51.420;7.036;2023-02-28T05:17:49;9.07;;;4.50;;
18623;SDS011;9441;51.420;7.036;2023-02-28T05:18:51;10.38;;;4.60;;
18623;SDS011;9441;51.420;7.036;2023-02-28T05:19:54;8.02;;;4.65;;
18623;SDS011;9441;51.420;7.036;2023-02-28T05:20:56;8.23;;;4.70;;
18623;SDS011;9441;51.420;7.036;2023-02-28T05:21:57;9.10;;;4.40;;
18623;SDS011;9441;51.420;7.036;2023-02-28T05:23:00;10.52;;;4.72;;
18623;SDS011;9441;51.420;7.036;2023-02-28T05:24:03;10.32;;;4.63;;
18623;SDS011;9441;51.420;7.036;2023-02-28T05:25:06;8.88;;;4.30;;
18623;SDS011;9441;51.420;7.036;2023-02-28T05:26:08;8.60;;;4.72;;
18623;SDS011;9441;51.420;7.036;2023-02-28T05:27:11;8.90;;;4.47;;
18623;SDS011;9441;51.420;7.036;2023-02-28T05:28:13;7.68;;;4.78;;
18623;SDS011;9441;51.420;7.036;2023-02-28T05:29:15;7.25;;;4.53;;
18623;SDS011;9441;51.420;7.036;2023-02-28T05:30:17;9.77;;;5.00;;
18623;SDS011;9441;51.420;7.036;2023-02-28T05:31:18;6.82;;;4.63;;
18623;SDS011;9441;51.420;7.036;2023-02-28T05:32:21;7.80;;;4.30;;
18623;SDS011;9441;51.420;7.036;2023-02-28T05:33:22;10.07;;;4.70;;
18623;SDS011;9441;51.420;7.036;2023-02-28T05:34:25;8.35;;;4.90;;
18623;SDS011;9441;51.420;7.036;2023-02-28T05:35:27;9.80;;;4.78;;
18623;SDS011;9441;51.420;7.036;2023-02-28T05:36:28;6.18;;;4.50;;
18623;SDS011;9441;51.420;7.036;2023-02-28T05:37:31;8.93;;;4.75;;
18623;SDS011;9441;51.420;7.036;2023-02-28T05:38:32;10.68;;;4.95;;
18623;SDS011;9441;51.420;7.036;2023-02-28T05:39:34;8.80;;;4.80;;
18623;SDS011;9441;51.420;7.036;2023-02-28T05:40:37;11.48;;;5.03;;
18623;SDS011;9441;51.420;7.036;2023-02-28T05:41:41;9.20;;;4.70;;
18623;SDS011;9441;51.420;7.036;2023-02-28T05:42:44;13.68;;;4.80;;
18623;SDS011;9441;51.420;7.036;2023-02-28T05:43:45;9.63;;;5.00;;
18623;SDS011;9441;51.420;7.036;2023-02-28T05:44:48;11.57;;;4.40;;
18623;SDS011;9441;51.420;7.036;2023-02-28T05:45:49;8.82;;;4.47;;
18623;SDS011;9441;51.420;7.036;2023-02-28T05:46:51;8.85;;;4.28;;
18623;SDS011;9441;51.420;7.036;2023-02-28T05:47:53;13.35;;;4.75;;
18623;SDS011;9441;51.420;7.036;2023-02-28T05:48:55;8.50;;;4.53;;
18623;SDS011;9441;51.420;7.036;2023-02-28T05:50:00;6.95;;;4.53;;
18623;SDS011;9441;51.420;7.036;2023-02-28T05:51:02;7.53;;;4.03;;
18623;SDS011;9441;51.420;7.036;2023-02-28T05:52:03;7.97;;;4.60;;
18623;SDS011;9441;51.420;7.036;2023-02-28T05:53:06;9.40;;;4.50;;
18623;SDS011;9441;51.420;7.036;2023-02-28T05:54:07;7.43;;;4.28;;
18623;SDS011;9441;51.420;7.036;2023-02-28T05:55:10;11.02;;;4.80;;
18623;SDS011;9441;51.420;7.036;2023-02-28T05:56:11;7.57;;;4.43;;
18623;SDS011;9441;51.420;7.036;2023-02-28T05:57:15;14.98;;;4.78;;
18623;SDS011;9441;51.420;7.036;2023-02-28T05:58:16;9.30;;;4.78;;
18623;SDS011;9441;51.420;7.036;2023-02-28T05:59:18;8.57;;;4.50;;
18623;SDS011;9441;51.420;7.036;2023-02-28T06:00:21;10.75;;;5.10;;
18623;SDS011;9441;51.420;7.036;2023-02-28T06:01:24;7.90;;;4.65;;
18623;SDS011;9441;51.420;7.036;2023-02-28T06:02:26;7.15;;;4.68;;
18623;SDS011;9441;51.420;7.036;2023-02-28T06:03:28;8.50;;;4.78;;
18623;SDS011;9441;51.420;7.036;2023-02-28T06:04:30;9.80;;;4.47;;
18623;SDS011;9441;51.420;7.036;2023-02-28T06:05:32;7.47;;;4.82;;
18623;SDS011;9441;51.420;7.036;2023-02-28T06:06:34;9.27;;;4.63;;
18623;SDS011;9441;51.420;7.036;2023-02-28T06:07:37;7.88;;;5.00;;
18623;SDS011;9441;51.420;7.036;2023-02-28T06:08:39;7.97;;;4.55;;
18623;SDS011;9441;51.420;7.036;2023-02-28T06:09:40;9.48;;;4.72;;
18623;SDS011;9441;51.420;7.036;2023-02-28T06:10:43;7.25;;;4.32;;
18623;SDS011;9441;51.420;7.036;2023-02-28T06:11:45;9.40;;;4.82;;
18623;SDS011;9441;51.420;7.036;2023-02-28T06:12:49;12.25;;;5.20;;
18623;SDS011;9441;51.420;7.036;2023-02-28T06:13:52;10.27;;;5.20;;
18623;SDS011;9441;51.420;7.036;2023-02-28T06:14:55;10.05;;;4.90;;
18623;SDS011;9441;51.420;7.036;2023-02-28T06:16:00;9.07;;;4.70;;
18623;SDS011;9441;51.420;7.036;2023-02-28T06:17:03;7.97;;;4.60;;
18623;SDS011;9441;51.420;7.036;2023-02-28T06:18:04;7.65;;;4.38;;
18623;SDS011;9441;51.420;7.036;2023-02-28T06:19:08;7.97;;;4.70;;
18623;SDS011;9441;51.420;7.036;2023-02-28T06:20:10;8.77;;;4.72;;
18623;SDS011;9441;51.420;7.036;2023-02-28T06:21:13;10.75;;;4.55;;
18623;SDS011;9441;51.420;7.036;2023-02-28T06:22:14;11.27;;;5.45;;
18623;SDS011;9441;51.420;7.036;2023-02-28T06:23:17;8.25;;;4.78;;
18623;SDS011;9441;51.420;7.036;2023-02-28T06:24:18;9.88;;;4.60;;
18623;SDS011;9441;51.420;7.036;2023-02-28T06:25:21;9.32;;;5.15;;
18623;SDS011;9441;51.420;7.036;2023-02-28T06:26:22;13.25;;;5.03;;
18623;SDS011;9441;51.420;7.036;2023-02-28T06:27:25;7.47;;;4.40;;
18623;SDS011;9441;51.420;7.036;2023-02-28T06:28:28;6.20;;;4.45;;
18623;SDS011;9441;51.420;7.036;2023-02-28T06:29:30;10.60;;;4.63;;
18623;SDS011;9441;51.420;7.036;2023-02-28T06:30:31;9.20;;;4.88;;
18623;SDS011;9441;51.420;7.036;2023-02-28T06:31:34;8.98;;;4.25;;